Time;durP1;ratioP1;P1;durP2;ratioP2;P2;SDS_P1;SDS_P2;PMS_P1;PMS_P2;Temp;Humidity;BMP_temperature;BMP_pressure;BME280_temperature;BME280_humidity;BME280_pressure;Samples;Min_cycle;Max_cycle;Signal;HPM_P1;HPM_P2
2021/01/13 00:02:26;;;;;;;8.90;3.83;;;3.20;99.90;;;;;;5094240;28;20651;-44
2021/01/13 00:04:52;;;;;;;6.82;3.45;;;3.30;99.90;;;;;;5094622;28;20222;-46
2021/01/13 00:07:20;;;;;;;8.00;3.85;;;2.90;99.90;;;;;;5094746;28;20194;-45
2021/01/13 00:09:46;;;;;;;11.23;3.95;;;3.00;99.90;;;;;;5093355;28;20646;-45
2021/01/13 00:12:13;;;;;;;7.18;3.88;;;2.90;99.90;;;;;;5094544;28;20559;-45
2021/01/13 00:14:39;;;;;;;8.27;3.78;;;3.10;99.90;;;;;;5094097;28;20286;-46
2021/01/13 00:17:07;;;;;;;12.95;4.43;;;2.90;99.90;;;;;;5094236;28;20244;-45
2021/01/13 00:19:34;;;;;;;9.30;4.10;;;2.80;99.90;;;;;;5094425;28;20761;-45
2021/01/13 00:22:00;;;;;;;10.20;4.00;;;3.00;99.90;;;;;;5094223;28;20664;-45
2021/01/13 00:24:28;;;;;;;16.00;4.70;;;2.70;99.90;;;;;;5093657;28;20218;-45
2021/01/13 00:26:57;;;;;;;3.83;2.80;;;2.70;99.90;;;;;;5094111;28;20195;-45
2021/01/13 00:29:24;;;;;;;7.43;3.58;;;2.80;99.90;;;;;;5094330;28;20191;-46
2021/01/13 00:31:51;;;;;;;10.38;3.45;;;2.80;99.90;;;;;;5094293;28;20686;-46
2021/01/13 00:34:17;;;;;;;8.95;3.70;;;2.80;99.90;;;;;;5094429;28;20221;-46
2021/01/13 00:36:44;;;;;;;11.75;3.13;;;2.60;99.90;;;;;;5095092;28;20240;-46
2021/01/13 00:39:10;;;;;;;13.25;3.15;;;2.80;99.90;;;;;;5095491;28;20211;-46
2021/01/13 00:41:39;;;;;;;6.50;3.28;;;2.70;99.90;;;;;;5094792;28;20195;-46
2021/01/13 00:44:07;;;;;;;5.00;2.35;;;3.00;99.90;;;;;;5093058;28;20219;-46
2021/01/13 00:46:37;;;;;;;11.07;2.80;;;2.80;99.90;;;;;;5093974;28;20218;-46
2021/01/13 00:49:05;;;;;;;4.75;2.05;;;3.10;99.90;;;;;;5094116;28;20495;-46
2021/01/13 00:51:33;;;;;;;11.13;2.55;;;2.90;99.90;;;;;;5093722;28;20210;-46
2021/01/13 00:54:00;;;;;;;8.75;2.80;;;3.10;99.90;;;;;;5093259;28;20241;-46
2021/01/13 00:56:26;;;;;;;8.10;2.80;;;2.90;99.90;;;;;;5093615;28;20191;-46
2021/01/13 00:58:55;;;;;;;14.23;3.95;;;2.90;99.90;;;;;;5093563;28;20253;-46
2021/01/13 01:01:25;;;;;;;8.52;2.03;;;3.10;99.90;;;;;;5093266;28;20280;-46
2021/01/13 01:03:52;;;;;;;7.28;2.67;;;2.90;99.90;;;;;;5092738;28;20222;-46
2021/01/13 01:06:19;;;;;;;9.35;2.10;;;3.00;99.90;;;;;;5093243;28;20194;-46
2021/01/13 01:08:46;;;;;;;7.25;2.90;;;3.20;99.90;;;;;;5093260;28;20753;-46
2021/01/13 01:11:13;;;;;;;7.93;2.67;;;3.10;99.90;;;;;;5091977;28;20207;-46
2021/01/13 01:13:40;;;;;;;13.98;3.10;;;3.00;99.90;;;;;;5092759;28;20198;-46
2021/01/13 01:16:08;;;;;;;8.50;2.88;;;3.00;99.90;;;;;;5093091;28;20221;-46
2021/01/13 01:18:34;;;;;;;12.82;2.78;;;2.90;99.90;;;;;;5092919;28;20210;-46
2021/01/13 01:21:01;;;;;;;10.25;4.28;;;3.00;99.90;;;;;;5093171;28;20699;-46
2021/01/13 01:23:27;;;;;;;11.77;3.13;;;3.30;99.90;;;;;;5092606;28;20689;-46
2021/01/13 01:25:54;;;;;;;15.68;3.38;;;2.80;99.90;;;;;;5091761;28;20198;-46
2021/01/13 01:28:20;;;;;;;7.05;2.95;;;3.00;99.90;;;;;;5091625;28;20224;-46
2021/01/13 01:30:47;;;;;;;5.60;3.13;;;2.80;99.90;;;;;;5092290;28;20276;-46
2021/01/13 01:33:14;;;;;;;5.22;3.08;;;3.00;99.90;;;;;;5094881;28;20199;-46
2021/01/13 01:35:41;;;;;;;7.25;2.80;;;2.70;99.90;;;;;;5094690;28;20210;-44
2021/01/13 01:38:07;;;;;;;7.00;2.70;;;3.00;99.90;;;;;;5093480;28;20206;-45
2021/01/13 01:40:34;;;;;;;6.30;2.40;;;2.90;99.90;;;;;;5093375;28;20209;-44
2021/01/13 01:43:00;;;;;;;11.27;2.78;;;2.80;99.90;;;;;;5092899;28;20608;-44
2021/01/13 01:45:29;;;;;;;10.55;3.03;;;3.00;99.90;;;;;;5092887;28;20214;-45
2021/01/13 01:48:16;;;;;;;8.27;3.50;;;2.80;99.90;;;;;;5092446;28;20256;-45
2021/01/13 01:50:44;;;;;;;7.47;2.60;;;3.00;99.90;;;;;;5092583;28;20195;-45
2021/01/13 01:53:22;;;;;;;9.73;3.38;;;3.20;99.90;;;;;;5092412;28;20563;-45
2021/01/13 01:55:55;;;;;;;11.88;2.80;;;2.70;99.90;;;;;;5092020;28;20218;-45
2021/01/13 01:58:26;;;;;;;7.47;3.38;;;3.30;99.90;;;;;;5092441;28;20308;-45
2021/01/13 02:00:55;;;;;;;10.45;3.00;;;3.00;99.90;;;;;;5092571;28;20720;-45
2021/01/13 02:03:26;;;;;;;7.43;3.25;;;3.20;99.90;;;;;;5092518;28;20615;-45
2021/01/13 02:05:58;;;;;;;7.25;3.38;;;3.10;99.90;;;;;;5092752;28;20202;-45
2021/01/13 02:08:25;;;;;;;10.68;3.83;;;3.10;99.90;;;;;;5092283;28;20215;-45
2021/01/13 02:10:52;;;;;;;8.85;4.80;;;3.30;99.90;;;;;;5091388;28;20203;-45
2021/01/13 02:13:22;;;;;;;8.02;3.90;;;3.00;99.90;;;;;;5092483;28;20190;-45
2021/01/13 02:15:49;;;;;;;14.13;4.22;;;3.20;99.90;;;;;;5093903;28;20219;-45
2021/01/13 02:18:20;;;;;;;7.53;5.30;;;3.10;99.90;;;;;;5094603;28;20278;-45
2021/01/13 02:20:53;;;;;;;13.50;3.88;;;3.10;99.90;;;;;;5094202;28;20199;-45
2021/01/13 02:23:31;;;;;;;7.28;4.00;;;3.40;99.90;;;;;;5093584;28;20663;-45
2021/01/13 02:26:40;;;;;;;12.27;4.18;;;3.50;99.90;;;;;;5095211;28;20203;-45
2021/01/13 02:29:16;;;;;;;6.85;3.75;;;3.30;99.90;;;;;;5092471;28;20194;-46
2021/01/13 02:31:56;;;;;;;24.17;4.75;;;3.20;99.90;;;;;;5092753;28;20452;-45
2021/01/13 02:34:38;;;;;;;8.95;3.72;;;3.10;99.90;;;;;;5092463;28;20227;-45
2021/01/13 02:37:37;;;;;;;5.55;3.72;;;3.00;99.90;;;;;;5093577;28;20714;-45
2021/01/13 02:40:06;;;;;;;8.23;4.07;;;3.30;99.90;;;;;;5093221;28;20190;-45
2021/01/13 02:42:37;;;;;;;6.63;3.20;;;3.00;99.90;;;;;;5093963;28;20248;-45
2021/01/13 02:45:10;;;;;;;11.63;3.72;;;3.50;99.90;;;;;;5092626;28;20210;-47
2021/01/13 02:48:11;;;;;;;6.13;3.40;;;3.00;99.90;;;;;;5092751;28;20228;-45
2021/01/13 02:50:43;;;;;;;7.65;3.58;;;3.00;99.90;;;;;;5092624;28;20666;-45
2021/01/13 02:53:48;;;;;;;11.10;3.28;;;3.10;99.90;;;;;;5092644;28;20285;-45
2021/01/13 02:56:31;;;;;;;6.15;3.30;;;3.30;99.90;;;;;;5092097;28;20198;-45
2021/01/13 02:59:07;;;;;;;7.40;3.20;;;3.20;99.90;;;;;;5092386;28;20305;-45
2021/01/13 03:01:46;;;;;;;4.63;2.50;;;3.40;99.90;;;;;;5092442;28;20716;-45
2021/01/13 03:04:13;;;;;;;6.35;2.55;;;3.60;99.90;;;;;;5091810;28;20264;-47
2021/01/13 03:06:43;;;;;;;7.10;2.67;;;3.30;99.90;;;;;;5091965;28;20183;-45
2021/01/13 03:09:11;;;;;;;8.13;3.05;;;3.50;99.90;;;;;;5095829;28;20191;-46
2021/01/13 03:11:39;;;;;;;5.90;2.83;;;3.40;99.90;;;;;;5095945;28;20194;-45
2021/01/13 03:14:19;;;;;;;9.80;3.45;;;3.60;99.90;;;;;;5095754;28;20678;-45
2021/01/13 03:17:02;;;;;;;7.22;3.28;;;3.60;99.90;;;;;;5095875;28;20183;-46
2021/01/13 03:20:01;;;;;;;9.95;3.28;;;3.30;99.90;;;;;;5094851;28;20728;-45
2021/01/13 03:22:31;;;;;;;7.30;3.00;;;3.50;99.90;;;;;;5095408;28;20344;-45
2021/01/13 03:25:03;;;;;;;10.63;3.55;;;3.50;99.90;;;;;;5096644;28;20618;-45
2021/01/13 03:27:32;;;;;;;19.17;3.40;;;3.60;99.90;;;;;;5096437;28;20191;-46
2021/01/13 03:30:00;;;;;;;4.45;2.80;;;3.60;99.90;;;;;;5096272;28;20186;-45
2021/01/13 03:32:37;;;;;;;5.13;3.17;;;3.20;99.90;;;;;;5095616;28;20201;-45
2021/01/13 03:35:08;;;;;;;10.05;3.47;;;3.50;99.90;;;;;;5095994;28;20218;-46
2021/01/13 03:37:59;;;;;;;9.68;3.55;;;3.30;99.90;;;;;;5096657;28;20221;-45
2021/01/13 03:40:30;;;;;;;12.27;3.83;;;3.30;99.90;;;;;;5096497;28;20191;-45
2021/01/13 03:42:59;;;;;;;10.63;4.38;;;3.50;99.90;;;;;;5095972;28;20589;-45
2021/01/13 03:45:35;;;;;;;13.15;3.80;;;3.60;99.90;;;;;;5095955;28;20222;-45
2021/01/13 03:48:25;;;;;;;9.10;3.80;;;3.70;99.90;;;;;;5095460;28;20240;-45
2021/01/13 03:50:53;;;;;;;8.32;3.47;;;3.40;99.90;;;;;;5095735;28;20191;-46
2021/01/13 03:53:22;;;;;;;5.55;3.03;;;3.50;99.90;;;;;;5095107;28;20246;-46
2021/01/13 03:55:53;;;;;;;14.55;4.03;;;3.50;99.90;;;;;;5096172;28;20588;-45
2021/01/13 03:58:42;;;;;;;7.38;4.05;;;3.50;99.90;;;;;;5096052;28;20575;-45
2021/01/13 04:01:42;;;;;;;10.75;3.90;;;3.60;99.90;;;;;;5095499;28;20197;-45
2021/01/13 04:04:43;;;;;;;6.63;3.88;;;3.80;99.90;;;;;;5109481;22;20211;-49
2021/01/13 04:07:12;;;;;;;9.68;4.18;;;3.70;99.90;;;;;;5073494;28;20197;-49
2021/01/13 04:09:39;;;;;;;7.35;3.28;;;3.50;99.90;;;;;;5073373;28;20269;-49
2021/01/13 04:12:14;;;;;;;9.13;3.72;;;3.70;99.90;;;;;;5073472;28;20211;-49
2021/01/13 04:14:55;;;;;;;10.40;3.78;;;3.60;99.90;;;;;;5073222;28;20250;-49
2021/01/13 04:17:26;;;;;;;6.45;4.22;;;3.70;99.90;;;;;;5073480;28;20196;-49
2021/01/13 04:19:55;;;;;;;7.78;4.50;;;3.80;99.90;;;;;;5073258;28;20664;-49
2021/01/13 04:22:26;;;;;;;7.47;4.20;;;3.70;99.90;;;;;;5072802;28;20253;-49
2021/01/13 04:24:54;;;;;;;11.02;4.53;;;3.80;99.90;;;;;;5072912;28;20232;-49
2021/01/13 04:27:22;;;;;;;8.15;4.03;;;3.50;99.90;;;;;;5073150;28;20681;-49
2021/01/13 04:29:49;;;;;;;12.35;4.60;;;3.80;99.90;;;;;;5073144;28;20670;-49
2021/01/13 04:32:16;;;;;;;11.48;4.32;;;3.70;99.90;;;;;;5072889;28;20698;-49
2021/01/13 04:34:43;;;;;;;11.05;4.93;;;3.60;99.90;;;;;;5072889;28;20273;-49
2021/01/13 04:37:11;;;;;;;10.43;4.72;;;3.50;99.90;;;;;;5072450;28;20236;-49
2021/01/13 04:39:39;;;;;;;9.75;4.80;;;3.60;99.90;;;;;;5073417;28;20227;-49
2021/01/13 04:42:09;;;;;;;16.13;4.97;;;3.50;99.90;;;;;;5072997;28;20226;-50
2021/01/13 04:44:43;;;;;;;8.70;4.72;;;3.60;99.90;;;;;;5072289;28;20256;-49
2021/01/13 04:47:11;;;;;;;10.40;4.22;;;3.70;99.90;;;;;;5071190;28;20206;-49
2021/01/13 04:49:38;;;;;;;9.02;4.00;;;3.60;99.90;;;;;;5072563;28;20187;-49
2021/01/13 04:52:12;;;;;;;23.08;5.90;;;3.80;99.90;;;;;;5072485;28;20249;-49
2021/01/13 04:54:39;;;;;;;5.80;4.05;;;3.50;99.90;;;;;;5072165;28;20306;-49
2021/01/13 04:57:36;;;;;;;10.38;4.88;;;3.80;99.90;;;;;;5072705;28;20538;-49
2021/01/13 05:00:23;;;;;;;13.55;5.35;;;3.90;99.90;;;;;;5072351;28;20281;-50
2021/01/13 05:03:20;;;;;;;21.05;6.28;;;3.80;99.90;;;;;;5072079;28;20721;-50
2021/01/13 05:05:49;;;;;;;9.25;6.57;;;3.10;99.90;;;;;;5072313;28;20242;-49
2021/01/13 05:08:28;;;;;;;15.38;5.32;;;3.70;99.90;;;;;;5072574;28;20194;-49
2021/01/13 05:11:11;;;;;;;10.77;5.40;;;3.60;99.90;;;;;;5072306;28;20188;-49
2021/01/13 05:13:46;;;;;;;10.57;5.10;;;3.70;99.90;;;;;;5071855;28;20199;-49
2021/01/13 05:16:14;;;;;;;9.10;5.07;;;3.40;99.90;;;;;;5072197;28;20211;-49
2021/01/13 05:18:54;;;;;;;9.25;5.80;;;3.00;99.90;;;;;;5072153;28;20778;-49
2021/01/13 05:21:21;;;;;;;11.18;4.10;;;3.40;99.90;;;;;;5072071;28;20244;-49
2021/01/13 05:23:53;;;;;;;6.28;4.72;;;3.70;99.90;;;;;;5070339;28;20211;-49
2021/01/13 05:26:23;;;;;;;8.80;4.95;;;3.60;99.90;;;;;;5071658;28;20609;-49
2021/01/13 05:29:37;;;;;;;8.07;4.80;;;3.40;99.90;;;;;;5072098;28;20198;-49
2021/01/13 05:32:06;;;;;;;8.70;4.80;;;3.40;99.90;;;;;;5009681;28;20217;-49
2021/01/13 05:34:35;;;;;;;11.40;5.35;;;3.50;99.90;;;;;;5057508;28;20288;-49
2021/01/13 05:37:18;;;;;;;10.90;5.40;;;3.60;99.90;;;;;;5070586;28;20195;-49
2021/01/13 05:39:47;;;;;;;8.68;4.90;;;2.80;99.90;;;;;;5071501;28;20216;-49
2021/01/13 05:42:17;;;;;;;13.25;4.72;;;3.50;99.90;;;;;;5071620;28;20191;-49
2021/01/13 05:44:44;;;;;;;12.65;4.47;;;3.10;99.90;;;;;;5071327;28;20219;-49
2021/01/13 05:47:48;;;;;;;10.07;4.00;;;3.40;99.90;;;;;;5071431;28;20648;-48
2021/01/13 05:50:18;;;;;;;10.00;4.35;;;3.40;99.90;;;;;;5071581;28;20221;-49
2021/01/13 05:52:47;;;;;;;9.63;4.60;;;3.40;99.90;;;;;;5071167;28;20203;-49
2021/01/13 05:55:17;;;;;;;9.50;4.75;;;3.20;99.90;;;;;;5071216;28;20214;-49
2021/01/13 05:57:54;;;;;;;9.82;4.35;;;3.40;99.90;;;;;;5071624;28;20195;-50
2021/01/13 06:00:22;;;;;;;11.93;5.55;;;3.20;99.90;;;;;;5070049;28;20279;-49
2021/01/13 06:02:49;;;;;;;14.85;6.18;;;2.70;99.90;;;;;;5070988;28;20206;-49
2021/01/13 06:05:17;;;;;;;9.98;5.60;;;3.50;99.90;;;;;;5070995;28;20261;-49
2021/01/13 06:07:50;;;;;;;11.20;5.45;;;3.50;99.90;;;;;;5071782;28;20308;-48
2021/01/13 06:10:19;;;;;;;9.82;5.00;;;3.60;99.90;;;;;;5071611;28;20299;-49
2021/01/13 06:12:48;;;;;;;8.77;5.25;;;3.30;99.90;;;;;;5070811;28;20192;-49
2021/01/13 06:15:22;;;;;;;22.40;6.50;;;3.20;99.90;;;;;;5071088;28;20246;-50
2021/01/13 06:17:50;;;;;;;19.80;7.35;;;3.80;99.90;;;;;;5070839;28;20199;-50
2021/01/13 06:20:19;;;;;;;10.77;6.13;;;3.50;99.90;;;;;;5070789;28;20617;-49
2021/01/13 06:22:48;;;;;;;13.30;5.32;;;3.30;99.90;;;;;;5071041;28;20202;-48
2021/01/13 06:25:22;;;;;;;15.77;6.20;;;3.40;99.90;;;;;;5069458;28;20329;-50
2021/01/13 06:28:12;;;;;;;13.93;6.28;;;3.50;99.90;;;;;;5070691;28;20286;-50
2021/01/13 06:30:41;;;;;;;13.90;6.20;;;3.70;99.90;;;;;;5070757;28;20195;-50
2021/01/13 06:33:09;;;;;;;14.50;6.75;;;3.60;99.90;;;;;;5070142;28;20210;-51
2021/01/13 06:36:05;;;;;;;11.52;5.03;;;3.70;99.90;;;;;;5070810;28;20590;-50
2021/01/13 06:38:47;;;;;;;11.95;6.18;;;3.30;99.90;;;;;;5064295;28;20230;-50
2021/01/13 06:41:15;;;;;;;10.32;4.88;;;3.70;99.90;;;;;;5070831;28;20188;-49
2021/01/13 06:43:56;;;;;;;10.10;4.90;;;3.70;99.90;;;;;;5073442;28;20203;-50
2021/01/13 06:46:22;;;;;;;13.95;5.45;;;3.80;99.90;;;;;;5074614;28;20638;-50
2021/01/13 06:48:49;;;;;;;13.07;5.07;;;3.10;99.90;;;;;;5074153;28;20274;-50
2021/01/13 06:51:16;;;;;;;11.95;5.00;;;3.60;99.90;;;;;;5074370;28;20705;-50
2021/01/13 06:53:46;;;;;;;11.43;3.53;;;3.80;99.90;;;;;;5073881;28;20215;-50
2021/01/13 06:56:14;;;;;;;8.63;4.38;;;3.60;99.90;;;;;;5074529;28;20621;-50
2021/01/13 06:58:55;;;;;;;9.20;3.92;;;3.50;99.90;;;;;;5074595;28;20276;-50
2021/01/13 07:01:22;;;;;;;13.45;4.97;;;3.70;99.90;;;;;;5074861;28;20274;-47
2021/01/13 07:03:57;;;;;;;8.45;3.92;;;3.60;99.90;;;;;;5074436;28;20219;-49
2021/01/13 07:06:24;;;;;;;10.18;5.05;;;3.90;99.90;;;;;;5074394;28;20204;-49
2021/01/13 07:08:52;;;;;;;15.73;5.00;;;3.70;99.90;;;;;;5074770;28;20388;-49
2021/01/13 07:11:20;;;;;;;10.75;5.00;;;3.50;99.90;;;;;;5074733;28;20199;-49
2021/01/13 07:13:51;;;;;;;10.05;4.50;;;3.80;99.90;;;;;;5074088;28;20199;-49
2021/01/13 07:16:25;;;;;;;11.77;4.65;;;3.80;99.90;;;;;;5074273;28;20531;-49
2021/01/13 07:18:52;;;;;;;22.67;5.55;;;3.50;99.90;;;;;;5074034;28;20215;-49
2021/01/13 07:21:18;;;;;;;17.08;5.93;;;3.70;99.90;;;;;;5073927;28;20203;-49
2021/01/13 07:23:47;;;;;;;9.95;4.53;;;4.00;99.90;;;;;;5074042;28;20284;-49
2021/01/13 07:26:16;;;;;;;9.27;5.55;;;3.10;99.90;;;;;;5074761;28;20223;-49
2021/01/13 07:28:43;;;;;;;14.55;5.45;;;3.50;99.90;;;;;;5074328;28;20191;-49
2021/01/13 07:31:10;;;;;;;17.35;6.38;;;3.90;99.90;;;;;;5073903;28;20354;-49
2021/01/13 07:33:41;;;;;;;18.60;5.60;;;3.70;99.90;;;;;;5073618;28;20211;-48
2021/01/13 07:36:13;;;;;;;13.15;3.85;;;3.60;99.90;;;;;;5073834;28;20211;-49
2021/01/13 07:38:44;;;;;;;13.98;4.88;;;3.50;99.90;;;;;;5073888;28;20211;-50
2021/01/13 07:41:24;;;;;;;8.57;2.75;;;3.20;99.90;;;;;;5073667;28;20466;-50
2021/01/13 07:44:38;;;;;;;14.93;5.13;;;4.10;99.90;;;;;;5073700;28;20261;-49
2021/01/13 07:47:14;;;;;;;14.23;4.13;;;3.80;99.90;;;;;;5073717;28;20195;-49
2021/01/13 07:49:47;;;;;;;11.10;4.22;;;3.60;99.90;;;;;;5073208;28;20188;-50
2021/01/13 07:52:17;;;;;;;13.23;5.00;;;3.90;99.90;;;;;;5073416;28;20195;-50
2021/01/13 07:54:49;;;;;;;18.65;6.07;;;4.00;99.90;;;;;;5072823;28;20346;-50
2021/01/13 07:57:24;;;;;;;23.45;6.80;;;3.70;99.90;;;;;;5072991;28;20200;-50
2021/01/13 08:00:05;;;;;;;12.82;5.45;;;4.10;99.90;;;;;;5072778;28;20240;-50
2021/01/13 08:03:22;;;;;;;8.27;4.93;;;3.90;99.90;;;;;;5072930;28;20214;-50
2021/01/13 08:06:27;;;;;;;7.88;3.75;;;3.90;99.90;;;;;;5073268;28;20306;-50
2021/01/13 08:09:15;;;;;;;16.02;4.80;;;4.00;99.90;;;;;;5073264;28;20179;-50
2021/01/13 08:12:14;;;;;;;11.02;4.07;;;3.60;99.90;;;;;;5073174;28;20214;-49
2021/01/13 08:15:07;;;;;;;9.05;4.53;;;4.00;99.90;;;;;;5072604;28;20667;-49
2021/01/13 08:17:40;;;;;;;6.70;3.90;;;3.80;99.90;;;;;;5072891;28;20284;-49
2021/01/13 08:20:39;;;;;;;8.35;4.85;;;4.20;99.90;;;;;;5073071;28;20218;-49
2021/01/13 08:23:10;;;;;;;7.70;4.30;;;4.20;99.90;;;;;;5068930;28;20237;-49
2021/01/13 08:25:38;;;;;;;10.45;4.35;;;4.20;99.90;;;;;;5073042;28;20243;-49
2021/01/13 08:28:12;;;;;;;9.90;3.83;;;4.40;99.90;;;;;;5073321;28;20230;-48
2021/01/13 08:30:42;;;;;;;10.23;4.35;;;4.20;99.90;;;;;;5073031;28;20270;-49
2021/01/13 08:33:20;;;;;;;8.70;4.25;;;4.20;99.90;;;;;;5071921;28;20199;-50
2021/01/13 08:35:49;;;;;;;6.78;4.13;;;4.10;99.90;;;;;;5072636;28;20626;-50
2021/01/13 08:38:16;;;;;;;7.35;3.85;;;4.30;99.90;;;;;;5072785;28;20218;-50
2021/01/13 08:40:43;;;;;;;7.35;3.63;;;4.40;99.90;;;;;;5072245;28;20206;-50
2021/01/13 08:43:12;;;;;;;5.35;3.30;;;4.20;99.90;;;;;;5072115;28;20650;-50
2021/01/13 08:45:41;;;;;;;15.13;4.18;;;4.50;99.90;;;;;;5072800;28;20239;-50
2021/01/13 08:48:12;;;;;;;7.75;4.18;;;4.50;99.90;;;;;;5072194;28;20192;-49
2021/01/13 08:50:40;;;;;;;9.90;5.13;;;4.50;99.90;;;;;;5073112;28;20195;-49
2021/01/13 08:53:08;;;;;;;7.28;3.55;;;4.40;99.90;;;;;;5071965;28;20192;-50
2021/01/13 08:55:35;;;;;;;5.85;3.63;;;4.30;99.90;;;;;;5072177;28;20221;-50
2021/01/13 08:58:09;;;;;;;8.40;4.80;;;4.50;99.90;;;;;;5072135;28;20617;-50
2021/01/13 09:00:37;;;;;;;13.05;4.78;;;4.50;99.90;;;;;;5072398;28;20196;-50
2021/01/13 09:03:13;;;;;;;19.77;4.30;;;4.70;99.90;;;;;;5069851;28;20334;-50
2021/01/13 09:05:42;;;;;;;11.00;3.65;;;4.50;99.90;;;;;;5071258;28;20707;-48
2021/01/13 09:08:11;;;;;;;9.45;3.70;;;4.70;99.90;;;;;;5071695;28;20195;-49
2021/01/13 09:10:54;;;;;;;6.90;3.90;;;4.70;99.90;;;;;;5070495;28;20222;-49
2021/01/13 09:13:43;;;;;;;14.63;5.20;;;4.60;99.90;;;;;;5071008;28;20195;-49
2021/01/13 09:16:34;;;;;;;7.88;3.60;;;4.60;99.90;;;;;;5071638;28;20238;-49
2021/01/13 09:19:09;;;;;;;17.90;5.85;;;4.70;99.90;;;;;;5056613;28;20288;-49
2021/01/13 09:21:38;;;;;;;8.55;4.45;;;4.80;99.90;;;;;;5072010;28;20240;-49
2021/01/13 09:24:06;;;;;;;10.70;3.88;;;4.70;99.90;;;;;;5067265;28;20204;-49
2021/01/13 09:26:35;;;;;;;10.38;2.97;;;4.60;99.90;;;;;;5070313;28;20242;-50
2021/01/13 09:29:07;;;;;;;12.25;4.03;;;4.60;99.90;;;;;;5071757;28;20550;-49
2021/01/13 09:31:34;;;;;;;8.90;3.60;;;4.90;99.90;;;;;;5072019;28;20200;-49
2021/01/13 09:34:01;;;;;;;7.95;3.33;;;4.70;99.90;;;;;;5070290;28;20195;-49
2021/01/13 09:36:31;;;;;;;11.43;3.60;;;4.70;99.90;;;;;;5071839;28;20607;-49
2021/01/13 09:39:15;;;;;;;9.45;3.25;;;4.90;99.90;;;;;;5071377;28;20296;-49
2021/01/13 09:41:54;;;;;;;8.02;2.95;;;5.10;99.90;;;;;;5071529;28;20251;-49
2021/01/13 09:44:23;;;;;;;10.57;3.95;;;5.00;99.90;;;;;;5070524;28;20222;-48
2021/01/13 09:46:50;;;;;;;8.48;3.60;;;4.80;99.90;;;;;;5070982;28;20612;-49
2021/01/13 09:49:16;;;;;;;11.05;2.92;;;5.10;99.90;;;;;;5071254;28;20190;-49
2021/01/13 09:51:43;;;;;;;8.25;2.90;;;4.80;99.90;;;;;;5071380;28;20210;-48
2021/01/13 09:54:13;;;;;;;9.70;3.33;;;4.90;99.90;;;;;;5070514;28;20312;-48
2021/01/13 09:56:41;;;;;;;7.07;2.75;;;5.10;99.90;;;;;;5071283;28;20278;-49
2021/01/13 09:59:09;;;;;;;5.65;3.17;;;4.90;99.90;;;;;;5070760;28;20203;-49
2021/01/13 10:01:37;;;;;;;6.68;3.35;;;5.00;99.90;;;;;;5071408;28;20202;-48
2021/01/13 10:06:30;;;;;;;12.70;3.60;;;4.90;99.90;;;;;;5090922;22;20262;-47
2021/01/13 10:08:59;;;;;;;10.85;4.72;;;5.10;99.90;;;;;;5073905;28;20187;-46
2021/01/13 10:11:27;;;;;;;9.40;2.75;;;4.90;99.90;;;;;;5072340;28;20196;-46
2021/01/13 10:14:01;;;;;;;5.70;3.05;;;4.70;99.90;;;;;;5071700;28;20275;-46
2021/01/13 10:16:28;;;;;;;6.80;3.35;;;5.20;99.90;;;;;;5091699;28;20222;-46
2021/01/13 10:18:56;;;;;;;9.73;3.13;;;4.70;99.90;;;;;;5092178;28;20210;-46
2021/01/13 10:21:24;;;;;;;5.10;2.72;;;5.00;99.90;;;;;;5092231;28;20205;-46
2021/01/13 10:23:52;;;;;;;7.90;3.63;;;5.30;99.90;;;;;;5091723;28;20215;-47
2021/01/13 10:26:18;;;;;;;7.03;2.50;;;5.40;99.90;;;;;;5092246;28;20658;-46
2021/01/13 10:28:46;;;;;;;7.80;2.70;;;5.20;99.90;;;;;;5091805;28;20194;-47
2021/01/13 10:31:24;;;;;;;6.20;4.03;;;5.40;99.90;;;;;;5092169;28;20332;-46
2021/01/13 10:33:52;;;;;;;7.38;3.40;;;5.20;99.90;;;;;;5090616;28;20221;-46
2021/01/13 10:36:38;;;;;;;10.65;3.42;;;4.60;99.90;;;;;;5091612;28;20217;-47
2021/01/13 10:39:11;;;;;;;8.43;3.40;;;5.40;99.90;;;;;;5091489;28;20218;-46
2021/01/13 10:41:39;;;;;;;11.05;4.30;;;5.20;99.90;;;;;;5092947;28;20216;-47
2021/01/13 10:44:08;;;;;;;7.15;3.03;;;5.00;99.90;;;;;;5093547;28;20678;-47
2021/01/13 10:46:43;;;;;;;6.82;3.50;;;5.10;99.90;;;;;;5093343;28;20204;-48
2021/01/13 10:49:20;;;;;;;5.38;3.13;;;5.30;99.90;;;;;;5092605;28;20678;-47
2021/01/13 10:51:50;;;;;;;10.38;4.35;;;5.10;99.90;;;;;;5094446;28;20198;-47
2021/01/13 10:54:20;;;;;;;7.68;3.42;;;5.20;99.90;;;;;;5092814;28;20194;-47
2021/01/13 10:56:52;;;;;;;15.40;3.40;;;5.20;99.90;;;;;;5092452;28;20218;-47
2021/01/13 10:59:19;;;;;;;7.78;3.80;;;5.20;99.90;;;;;;5092655;28;20213;-46
2021/01/13 11:01:49;;;;;;;13.02;3.80;;;5.20;99.90;;;;;;5084299;28;20195;-46
2021/01/13 11:04:27;;;;;;;8.90;3.10;;;5.20;99.90;;;;;;5072651;28;20260;-47
2021/01/13 11:06:59;;;;;;;7.15;3.15;;;5.30;99.90;;;;;;5072361;28;20195;-47
2021/01/13 11:09:26;;;;;;;5.85;2.33;;;5.40;99.90;;;;;;5091434;28;20742;-47
2021/01/13 11:11:53;;;;;;;6.53;2.85;;;5.50;99.90;;;;;;5092108;28;20281;-47
2021/01/13 11:14:46;;;;;;;6.20;2.90;;;5.50;99.90;;;;;;5091103;28;20198;-47
2021/01/13 11:17:16;;;;;;;6.63;3.00;;;5.10;99.90;;;;;;5072771;28;20277;-46
2021/01/13 11:19:48;;;;;;;5.78;2.95;;;5.20;99.90;;;;;;5091324;28;20215;-46
2021/01/13 11:22:16;;;;;;;7.05;2.90;;;5.20;99.90;;;;;;5090265;28;20465;-47
2021/01/13 11:24:45;;;;;;;7.68;3.00;;;5.50;99.90;;;;;;5090988;28;20628;-47
2021/01/13 11:27:14;;;;;;;7.95;3.83;;;5.70;99.90;;;;;;5091447;28;20236;-47
2021/01/13 11:29:42;;;;;;;8.77;2.92;;;5.60;99.90;;;;;;5094079;28;20190;-46
2021/01/13 11:32:14;;;;;;;10.15;2.95;;;5.30;99.90;;;;;;5094937;28;20210;-47
2021/01/13 11:34:46;;;;;;;6.65;2.70;;;5.70;99.90;;;;;;5094623;28;20226;-46
2021/01/13 11:37:36;;;;;;;9.82;3.05;;;5.80;99.90;;;;;;5093954;28;20201;-46
2021/01/13 11:40:09;;;;;;;4.90;3.00;;;5.90;99.90;;;;;;5077384;28;20233;-46
2021/01/13 11:43:18;;;;;;;11.05;2.60;;;5.70;99.90;;;;;;5094904;28;20290;-46
2021/01/13 11:45:57;;;;;;;10.48;4.28;;;5.80;99.90;;;;;;5095915;28;20275;-46
2021/01/13 11:48:31;;;;;;;6.78;3.90;;;5.60;99.90;;;;;;5097088;28;20194;-46
2021/01/13 11:51:01;;;;;;;7.13;3.20;;;5.60;99.90;;;;;;5097083;28;20206;-45
2021/01/13 11:53:29;;;;;;;7.25;3.63;;;5.60;99.90;;;;;;5096004;28;20210;-46
2021/01/13 11:56:01;;;;;;;8.60;3.60;;;5.40;99.90;;;;;;5095129;28;20241;-46
2021/01/13 11:58:29;;;;;;;4.35;2.80;;;5.60;99.90;;;;;;5095330;28;20455;-46
2021/01/13 12:00:55;;;;;;;8.98;3.47;;;5.70;99.90;;;;;;5095224;28;20282;-48
2021/01/13 12:03:23;;;;;;;5.18;3.00;;;5.70;99.90;;;;;;5093955;28;20191;-46
2021/01/13 12:05:50;;;;;;;5.25;2.67;;;5.60;99.90;;;;;;5092702;28;20226;-46
2021/01/13 12:08:20;;;;;;;10.02;3.30;;;6.20;99.90;;;;;;5094694;28;20194;-46
2021/01/13 12:10:49;;;;;;;7.43;2.50;;;5.30;99.90;;;;;;5094644;28;20191;-46
2021/01/13 12:13:18;;;;;;;8.73;2.60;;;6.20;99.90;;;;;;5093063;28;20484;-46
2021/01/13 12:16:03;;;;;;;9.50;2.42;;;6.00;99.90;;;;;;5094136;28;20452;-47
2021/01/13 12:18:33;;;;;;;7.00;2.35;;;6.00;99.90;;;;;;5093797;28;20206;-47
2021/01/13 12:21:02;;;;;;;8.25;2.35;;;5.40;99.90;;;;;;5093850;28;20348;-46
2021/01/13 12:23:31;;;;;;;9.48;2.53;;;5.90;99.90;;;;;;5093908;28;20202;-47
2021/01/13 12:26:19;;;;;;;10.88;2.70;;;5.90;99.90;;;;;;5092248;28;20606;-45
2021/01/13 12:28:47;;;;;;;7.30;2.42;;;5.70;99.90;;;;;;5093987;28;20190;-47
2021/01/13 12:31:14;;;;;;;12.07;3.70;;;5.50;99.90;;;;;;5093927;28;20663;-48
2021/01/13 12:33:50;;;;;;;9.52;2.60;;;5.80;99.90;;;;;;5093617;28;20202;-46
2021/01/13 12:36:20;;;;;;;6.82;2.10;;;5.90;99.90;;;;;;5092824;28;20254;-47
2021/01/13 12:38:48;;;;;;;6.33;2.53;;;6.00;99.90;;;;;;5093750;28;20241;-47
2021/01/13 12:41:22;;;;;;;7.17;2.70;;;6.00;99.90;;;;;;5093192;28;20460;-47
2021/01/13 12:43:49;;;;;;;8.68;2.70;;;6.10;99.90;;;;;;5093389;28;20818;-46
2021/01/13 12:46:27;;;;;;;11.15;2.80;;;5.40;99.90;;;;;;5093666;28;20252;-48
2021/01/13 12:48:54;;;;;;;8.45;2.65;;;5.70;99.90;;;;;;5093222;28;20201;-47
2021/01/13 12:51:21;;;;;;;6.80;3.07;;;6.10;99.90;;;;;;5093508;28;20191;-46
2021/01/13 12:53:48;;;;;;;6.90;2.80;;;6.20;99.90;;;;;;5093069;28;20459;-47
2021/01/13 12:56:22;;;;;;;6.55;3.03;;;6.00;99.90;;;;;;5092506;28;20250;-47
2021/01/13 12:58:49;;;;;;;7.30;2.70;;;6.20;99.90;;;;;;5092948;28;20206;-47
2021/01/13 13:01:15;;;;;;;8.10;3.53;;;6.30;99.90;;;;;;5093372;28;20420;-47
2021/01/13 13:03:42;;;;;;;9.47;3.20;;;6.20;99.90;;;;;;5092334;28;20459;-47
2021/01/13 13:06:09;;;;;;;9.47;4.17;;;6.50;99.90;;;;;;5092650;28;20477;-47
2021/01/13 13:08:36;;;;;;;10.90;3.57;;;6.40;99.90;;;;;;5092750;28;20408;-48
2021/01/13 13:11:08;;;;;;;10.50;3.90;;;6.40;99.90;;;;;;5093012;28;20422;-48
2021/01/13 13:13:35;;;;;;;14.13;4.03;;;6.40;99.90;;;;;;5092969;28;20434;-48
2021/01/13 13:16:02;;;;;;;11.50;4.07;;;5.70;99.90;;;;;;5092050;28;20464;-48
2021/01/13 13:18:28;;;;;;;15.30;5.50;;;6.10;99.90;;;;;;5093035;28;20426;-47
2021/01/13 13:20:55;;;;;;;7.33;2.73;;;6.20;99.90;;;;;;5092855;28;20437;-47
2021/01/13 13:23:22;;;;;;;4.70;2.93;;;6.30;99.90;;;;;;5092350;28;20434;-48
2021/01/13 13:25:49;;;;;;;8.03;2.83;;;6.10;99.90;;;;;;5092788;28;20535;-46